Time;durP1;ratioP1;P1;durP2;ratioP2;P2;SDS_P1;SDS_P2;PMS_P1;PMS_P2;Temp;Humidity;BMP_temperature;BMP_pressure;BME280_temperature;BME280_humidity;BME280_pressure;Samples;Min_cycle;Max_cycle;Signal;HPM_P1;HPM_P2
2022/04/10 00:01:31;;;;;;;13.20;2.92;;;;;;;;;;5074859;27;97745;-82
2022/04/10 00:04:15;;;;;;;9.75;3.35;;;;;;;;;;5069591;27;95635;-82
2022/04/10 00:06:41;;;;;;;8.30;2.55;;;;;;;;;;5072282;27;97616;-77
2022/04/10 00:09:08;;;;;;;11.95;2.83;;;;;;;;;;5071631;27;96032;-80
2022/04/10 00:11:34;;;;;;;12.13;3.03;;;;;;;;;;5072496;27;96693;-76
2022/04/10 00:14:00;;;;;;;11.35;2.83;;;;;;;;;;5071757;27;97749;-76
2022/04/10 00:16:26;;;;;;;8.95;3.30;;;;;;;;;;5071615;27;95356;-82
2022/04/10 00:18:55;;;;;;;8.50;2.83;;;;;;;;;;5072389;27;96863;-80
2022/04/10 00:21:21;;;;;;;16.95;3.22;;;;;;;;;;5071912;27;97570;-75
2022/04/10 00:23:47;;;;;;;11.07;2.70;;;;;;;;;;5075095;27;95780;-80
2022/04/10 00:26:14;;;;;;;12.20;2.95;;;;;;;;;;5070128;27;97268;-79
2022/04/10 00:28:40;;;;;;;14.93;3.20;;;;;;;;;;5071048;27;95919;-80
2022/04/10 00:31:06;;;;;;;5.95;2.45;;;;;;;;;;5071832;27;96767;-80
2022/04/10 00:33:33;;;;;;;7.70;2.80;;;;;;;;;;5071635;27;96555;-80
2022/04/10 00:35:59;;;;;;;9.00;3.17;;;;;;;;;;5069783;27;95444;-80
2022/04/10 00:38:26;;;;;;;11.27;2.95;;;;;;;;;;5072124;27;97020;-81
2022/04/10 00:40:52;;;;;;;11.07;2.85;;;;;;;;;;5071768;27;97317;-80
2022/04/10 00:43:18;;;;;;;14.05;3.03;;;;;;;;;;5071061;27;95390;-81
2022/04/10 00:45:45;;;;;;;8.75;2.40;;;;;;;;;;5074968;27;97155;-79
2022/04/10 00:48:12;;;;;;;9.25;3.10;;;;;;;;;;5071373;27;95352;-79
2022/04/10 00:51:40;;;;;;;16.73;3.17;;;;;;;;;;5071300;27;96463;-80
2022/04/10 00:53:25;;;;;;;8.75;2.63;;;;;;;;;;5070201;27;96383;-81
2022/04/10 00:55:51;;;;;;;15.90;2.92;;;;;;;;;;5070981;27;95438;-80
2022/04/10 00:58:17;;;;;;;11.65;3.08;;;;;;;;;;5070634;27;97421;-77
2022/04/10 01:00:44;;;;;;;11.30;3.30;;;;;;;;;;5071363;27;97204;-79
2022/04/10 01:03:10;;;;;;;14.50;3.17;;;;;;;;;;5071260;27;95899;-81
2022/04/10 01:05:38;;;;;;;12.75;3.83;;;;;;;;;;5070858;27;97015;-81
2022/04/10 01:08:05;;;;;;;12.73;3.38;;;;;;;;;;5074158;27;97572;-82
2022/04/10 01:10:31;;;;;;;12.38;3.35;;;;;;;;;;5071742;27;97047;-79
2022/04/10 01:13:15;;;;;;;12.55;3.58;;;;;;;;;;5069622;27;96131;-81
2022/04/10 01:15:41;;;;;;;17.27;3.30;;;;;;;;;;5071153;27;95692;-80
2022/04/10 01:18:08;;;;;;;11.45;3.58;;;;;;;;;;5070388;27;96472;-80
2022/04/10 01:20:35;;;;;;;17.92;3.90;;;;;;;;;;5071047;27;97543;-80
2022/04/10 01:23:01;;;;;;;19.33;4.38;;;;;;;;;;5070972;27;95393;-81
2022/04/10 01:25:28;;;;;;;16.50;3.95;;;;;;;;;;5070726;27;96817;-82
2022/04/10 01:27:54;;;;;;;17.45;3.72;;;;;;;;;;5073745;27;97310;-81
2022/04/10 01:30:20;;;;;;;13.20;3.58;;;;;;;;;;5070892;27;97227;-81
2022/04/10 01:32:46;;;;;;;15.52;4.30;;;;;;;;;;5070410;27;97350;-79
2022/04/10 01:35:13;;;;;;;14.13;3.80;;;;;;;;;;5071039;27;96077;-80
2022/04/10 01:37:40;;;;;;;15.50;3.67;;;;;;;;;;5071143;27;96865;-81
2022/04/10 01:40:06;;;;;;;20.15;4.25;;;;;;;;;;5070219;27;97248;-75
2022/04/10 01:42:33;;;;;;;12.77;3.72;;;;;;;;;;5070674;27;96522;-74
2022/04/10 01:44:59;;;;;;;10.38;3.35;;;;;;;;;;5070510;27;97166;-80
2022/04/10 01:47:44;;;;;;;11.70;3.65;;;;;;;;;;5070109;27;95877;-81
2022/04/10 01:50:11;;;;;;;15.60;4.80;;;;;;;;;;5073832;27;95443;-78
2022/04/10 01:52:37;;;;;;;20.63;4.43;;;;;;;;;;5070659;27;97192;-81
2022/04/10 01:55:03;;;;;;;11.27;3.92;;;;;;;;;;5069952;27;95421;-81
2022/04/10 01:57:30;;;;;;;19.55;4.15;;;;;;;;;;5070526;27;96849;-81
2022/04/10 01:59:56;;;;;;;15.90;4.40;;;;;;;;;;5070632;27;97279;-79
2022/04/10 02:02:22;;;;;;;10.48;3.42;;;;;;;;;;5069862;27;96052;-80
2022/04/10 02:04:49;;;;;;;15.95;4.05;;;;;;;;;;5070382;27;96753;-78
2022/04/10 02:07:15;;;;;;;16.95;4.05;;;;;;;;;;5069015;27;97312;-79
2022/04/10 02:09:41;;;;;;;14.80;3.92;;;;;;;;;;5070402;27;95279;-79
2022/04/10 02:12:08;;;;;;;13.25;3.88;;;;;;;;;;5073242;27;96914;-80
2022/04/10 02:14:34;;;;;;;20.38;4.70;;;;;;;;;;5068346;27;95425;-80
2022/04/10 02:17:01;;;;;;;13.40;3.72;;;;;;;;;;5069862;27;96707;-81
2022/04/10 02:19:27;;;;;;;15.18;3.67;;;;;;;;;;5070106;27;97748;-77
2022/04/10 02:21:57;;;;;;;11.98;3.72;;;;;;;;;;5070036;27;95366;-77
2022/04/10 02:24:23;;;;;;;16.08;3.88;;;;;;;;;;5070288;27;97111;-78
2022/04/10 02:26:49;;;;;;;15.68;4.00;;;;;;;;;;5069919;27;97150;-80
2022/04/10 02:29:34;;;;;;;18.10;4.30;;;;;;;;;;5069276;27;95498;-80
2022/04/10 02:32:01;;;;;;;15.35;4.10;;;;;;;;;;5069600;27;97123;-80
2022/04/10 02:34:27;;;;;;;13.85;3.92;;;;;;;;;;5072978;27;97813;-80
2022/04/10 02:36:53;;;;;;;15.25;3.70;;;;;;;;;;5069683;27;97035;-80
2022/04/10 02:39:20;;;;;;;12.98;4.32;;;;;;;;;;5069687;27;97528;-81
2022/04/10 02:42:03;;;;;;;14.27;3.35;;;;;;;;;;5067875;27;95267;-80
2022/04/10 02:44:30;;;;;;;13.90;3.47;;;;;;;;;;5067703;27;95858;-80
2022/04/10 02:46:56;;;;;;;15.40;4.00;;;;;;;;;;5069374;27;98138;-79
2022/04/10 02:49:22;;;;;;;15.00;3.72;;;;;;;;;;5069100;27;95782;-80
2022/04/10 02:51:49;;;;;;;16.60;3.53;;;;;;;;;;5069884;27;95628;-79
2022/04/10 02:54:16;;;;;;;18.38;4.35;;;;;;;;;;5069090;27;97381;-79
2022/04/10 02:56:43;;;;;;;10.82;3.50;;;;;;;;;;5071818;27;95308;-81
2022/04/10 02:59:09;;;;;;;16.10;4.18;;;;;;;;;;5069396;27;97320;-80
2022/04/10 03:01:35;;;;;;;19.85;4.70;;;;;;;;;;5069815;27;95113;-81
2022/04/10 03:04:02;;;;;;;18.00;5.15;;;;;;;;;;5069097;27;95657;-77
2022/04/10 03:06:28;;;;;;;24.88;5.13;;;;;;;;;;5069343;27;96359;-79
2022/04/10 03:08:54;;;;;;;15.75;5.43;;;;;;;;;;5069619;27;95359;-78
2022/04/10 03:11:20;;;;;;;17.95;5.68;;;;;;;;;;5068943;27;97148;-78
2022/04/10 03:13:47;;;;;;;21.33;5.90;;;;;;;;;;5069705;27;97327;-77
2022/04/10 03:16:13;;;;;;;23.05;6.90;;;;;;;;;;5069079;27;95606;-79
2022/04/10 03:18:40;;;;;;;13.50;6.18;;;;;;;;;;5073884;27;96699;-81
2022/04/10 03:21:06;;;;;;;18.25;6.60;;;;;;;;;;5072604;27;95232;-80
2022/04/10 03:23:32;;;;;;;24.05;6.07;;;;;;;;;;5072885;27;97292;-82
2022/04/10 03:25:59;;;;;;;16.17;5.53;;;;;;;;;;5071983;27;97385;-82
2022/04/10 03:28:25;;;;;;;16.73;4.82;;;;;;;;;;5073030;27;95288;-81
2022/04/10 03:30:51;;;;;;;18.83;5.30;;;;;;;;;;5073053;27;97095;-80
2022/04/10 03:33:18;;;;;;;14.70;3.92;;;;;;;;;;5071980;27;97312;-79
2022/04/10 03:35:45;;;;;;;14.70;4.55;;;;;;;;;;5072898;27;95361;-81
2022/04/10 03:38:11;;;;;;;22.83;4.93;;;;;;;;;;5075875;27;96834;-79
2022/04/10 03:40:37;;;;;;;29.58;4.82;;;;;;;;;;5072409;27;95640;-81
2022/04/10 03:43:03;;;;;;;13.00;3.92;;;;;;;;;;5072363;27;96849;-81
2022/04/10 03:45:30;;;;;;;14.68;3.95;;;;;;;;;;5072007;27;97320;-81
2022/04/10 03:48:15;;;;;;;63.40;6.20;;;;;;;;;;5072063;27;95851;-82
2022/04/10 03:50:41;;;;;;;33.90;5.75;;;;;;;;;;5072532;27;96784;-80
2022/04/10 03:53:07;;;;;;;14.20;4.07;;;;;;;;;;5071318;27;97626;-79
2022/04/10 03:55:34;;;;;;;15.65;4.55;;;;;;;;;;5066034;27;95603;-80
2022/04/10 04:01:05;;;;;;;15.35;4.18;;;;;;;;;;5074530;27;97329;-80
2022/04/10 04:03:31;;;;;;;12.02;4.10;;;;;;;;;;5072966;27;95699;-81
2022/04/10 04:05:57;;;;;;;27.05;4.60;;;;;;;;;;5072013;27;97372;-81
2022/04/10 04:08:24;;;;;;;22.70;4.78;;;;;;;;;;5071853;27;95322;-82
2022/04/10 04:10:50;;;;;;;21.63;4.55;;;;;;;;;;5070942;27;97319;-82
2022/04/10 04:13:17;;;;;;;23.75;5.32;;;;;;;;;;5071595;27;97640;-81
2022/04/10 04:15:43;;;;;;;13.57;4.72;;;;;;;;;;5071768;27;95392;-80
2022/04/10 04:18:10;;;;;;;16.08;5.10;;;;;;;;;;5071769;27;96895;-81
2022/04/10 04:20:36;;;;;;;25.55;5.20;;;;;;;;;;5072344;27;97511;-80
2022/04/10 04:23:02;;;;;;;16.05;4.60;;;;;;;;;;5074923;27;95778;-81
2022/04/10 04:25:29;;;;;;;14.02;4.60;;;;;;;;;;5071780;27;97176;-82
2022/04/10 04:27:56;;;;;;;11.98;4.05;;;;;;;;;;5071936;27;95238;-79
2022/04/10 04:30:22;;;;;;;15.63;4.95;;;;;;;;;;5071201;27;97244;-81
2022/04/10 04:32:50;;;;;;;17.48;5.10;;;;;;;;;;5071749;27;97656;-81
2022/04/10 04:35:17;;;;;;;18.77;4.88;;;;;;;;;;5070313;27;95412;-81
2022/04/10 04:37:43;;;;;;;14.32;5.50;;;;;;;;;;5072493;27;96711;-81
2022/04/10 04:40:10;;;;;;;14.57;5.00;;;;;;;;;;5071058;27;97745;-80
2022/04/10 04:42:37;;;;;;;21.50;5.45;;;;;;;;;;5071309;27;95947;-80
2022/04/10 04:45:06;;;;;;;13.25;4.60;;;;;;;;;;5073726;27;97248;-76
2022/04/10 18:54:16;;;;;;;41.17;4.97;;;;;;;;;;5031939;27;1284466;-78
2022/04/10 18:56:43;;;;;;;9.02;3.70;;;;;;;;;;5058929;27;97499;-79
2022/04/10 18:59:28;;;;;;;6.70;3.45;;;;;;;;;;5054991;27;95875;-78
2022/04/10 19:01:55;;;;;;;10.35;5.32;;;;;;;;;;5054583;27;96570;-80
2022/04/10 19:04:21;;;;;;;13.23;5.93;;;;;;;;;;5053731;27;97602;-80
2022/04/10 19:06:48;;;;;;;18.23;5.95;;;;;;;;;;5057867;27;95894;-77
2022/04/10 19:09:14;;;;;;;18.45;6.28;;;;;;;;;;5056754;27;96700;-79
2022/04/10 19:11:41;;;;;;;12.00;6.05;;;;;;;;;;5050679;27;97411;-76
2022/04/10 19:14:07;;;;;;;12.02;5.60;;;;;;;;;;5059268;27;96167;-79
2022/04/10 19:16:33;;;;;;;42.00;7.18;;;;;;;;;;5048580;27;97660;-77
2022/04/10 19:19:00;;;;;;;25.13;6.05;;;;;;;;;;5044895;27;95766;-79
2022/04/10 19:21:26;;;;;;;10.35;5.20;;;;;;;;;;5053142;27;96736;-79
2022/04/10 19:23:53;;;;;;;9.13;4.47;;;;;;;;;;5055978;27;97252;-76
2022/04/10 19:26:20;;;;;;;13.80;4.40;;;;;;;;;;5053889;27;95296;-79
2022/04/10 19:28:46;;;;;;;10.23;4.50;;;;;;;;;;5065005;27;97092;-78
2022/04/10 19:31:13;;;;;;;11.60;5.47;;;;;;;;;;5064669;27;97313;-76
2022/04/10 19:33:40;;;;;;;41.13;6.65;;;;;;;;;;5064947;27;95434;-76
2022/04/10 19:36:07;;;;;;;29.10;6.20;;;;;;;;;;5054605;27;96739;-79
2022/04/10 19:38:33;;;;;;;16.48;6.10;;;;;;;;;;5064480;27;96696;-76
2022/04/10 19:40:59;;;;;;;12.50;7.20;;;;;;;;;;5064647;27;96857;-77
2022/04/10 19:43:26;;;;;;;19.17;7.35;;;;;;;;;;5064209;27;97513;-76
2022/04/10 19:45:52;;;;;;;24.30;9.65;;;;;;;;;;5059058;27;97262;-77
2022/04/10 19:48:19;;;;;;;14.98;8.80;;;;;;;;;;5063941;27;96767;-77
2022/04/10 19:50:45;;;;;;;25.65;7.82;;;;;;;;;;5062273;27;97326;-76
2022/04/10 19:55:56;;;;;;;10.00;5.70;;;;;;;;;;5054998;27;96799;-75
2022/04/10 19:58:23;;;;;;;11.93;7.20;;;;;;;;;;5047401;27;98287;-74
2022/04/10 20:00:49;;;;;;;14.60;6.80;;;;;;;;;;5043497;27;96012;-78
2022/04/10 20:03:15;;;;;;;16.58;9.60;;;;;;;;;;5042123;27;97406;-75
2022/04/10 20:05:42;;;;;;;18.05;9.85;;;;;;;;;;5049107;27;95595;-77
2022/04/10 20:08:08;;;;;;;23.60;13.00;;;;;;;;;;5049714;27;96861;-75
2022/04/10 20:10:34;;;;;;;37.65;13.23;;;;;;;;;;5049587;27;97626;-76
2022/04/10 20:13:02;;;;;;;39.90;13.88;;;;;;;;;;5050051;27;95327;-75
2022/04/10 20:15:28;;;;;;;30.58;13.93;;;;;;;;;;5049630;27;96670;-76
2022/04/10 20:17:55;;;;;;;21.60;10.85;;;;;;;;;;5050512;27;97303;-77
2022/04/10 20:20:22;;;;;;;25.67;8.63;;;;;;;;;;5053512;27;95472;-78
2022/04/10 20:22:48;;;;;;;14.40;6.53;;;;;;;;;;5048295;27;97060;-77
2022/04/10 20:25:14;;;;;;;8.57;4.88;;;;;;;;;;5029730;28;95388;-77
2022/04/10 20:27:41;;;;;;;9.02;5.15;;;;;;;;;;5031265;28;96757;-78
2022/04/10 20:30:08;;;;;;;12.30;5.97;;;;;;;;;;5033654;27;97534;-77
2022/04/10 20:32:34;;;;;;;35.22;8.55;;;;;;;;;;5049307;27;97308;-78
2022/04/10 20:35:00;;;;;;;14.48;8.20;;;;;;;;;;5050988;27;96725;-78
2022/04/10 20:37:27;;;;;;;18.30;5.75;;;;;;;;;;5047266;27;97472;-76
2022/04/10 20:39:56;;;;;;;12.35;5.20;;;;;;;;;;5031129;27;95369;-77
2022/04/10 20:42:23;;;;;;;11.18;4.80;;;;;;;;;;5032004;27;96780;-77
2022/04/10 20:44:49;;;;;;;10.05;5.00;;;;;;;;;;5031474;27;95719;-77
2022/04/10 20:47:16;;;;;;;17.02;9.13;;;;;;;;;;5030051;27;97395;-77
2022/04/10 20:49:42;;;;;;;16.42;8.73;;;;;;;;;;5029710;27;97586;-75
2022/04/10 20:52:08;;;;;;;23.15;9.60;;;;;;;;;;5030362;28;95710;-77
2022/04/10 20:54:35;;;;;;;44.25;10.15;;;;;;;;;;5029590;27;96824;-76
2022/04/10 20:57:01;;;;;;;27.58;10.52;;;;;;;;;;5028466;28;97632;-76
2022/04/10 20:59:28;;;;;;;18.20;7.53;;;;;;;;;;5033867;27;95698;-74
2022/04/10 21:01:54;;;;;;;15.40;6.50;;;;;;;;;;5049548;27;96822;-75
2022/04/10 21:04:21;;;;;;;16.35;5.68;;;;;;;;;;5052893;27;95217;-77
2022/04/10 21:06:47;;;;;;;9.25;4.93;;;;;;;;;;5041501;27;96202;-76
2022/04/10 21:09:13;;;;;;;8.57;5.10;;;;;;;;;;5049876;27;97453;-76
2022/04/10 21:11:42;;;;;;;9.70;4.97;;;;;;;;;;5050121;27;95388;-76
2022/04/10 21:14:08;;;;;;;18.80;5.85;;;;;;;;;;5050145;27;97108;-76
2022/04/10 21:16:34;;;;;;;17.50;5.85;;;;;;;;;;5044091;27;97304;-78
2022/04/10 21:19:01;;;;;;;14.23;5.50;;;;;;;;;;5041542;27;95416;-79
2022/04/10 21:21:44;;;;;;;11.30;6.25;;;;;;;;;;5048955;27;95349;-77
2022/04/10 21:24:11;;;;;;;21.58;7.45;;;;;;;;;;5052805;27;97402;-75
2022/04/10 21:26:38;;;;;;;11.43;6.43;;;;;;;;;;5032209;27;97038;-79
2022/04/10 21:29:04;;;;;;;11.38;6.70;;;;;;;;;;5040473;27;97510;-78
2022/04/10 21:31:30;;;;;;;49.42;7.85;;;;;;;;;;5037290;27;95721;-77
2022/04/10 21:33:57;;;;;;;20.65;6.10;;;;;;;;;;5040295;27;96777;-76
2022/04/10 21:36:25;;;;;;;12.77;6.25;;;;;;;;;;5028560;27;97490;-78
2022/04/10 21:38:51;;;;;;;9.38;6.00;;;;;;;;;;5031552;27;96337;-77
2022/04/10 21:44:02;;;;;;;9.45;4.97;;;;;;;;;;5029680;28;97334;-75
2022/04/10 21:46:29;;;;;;;10.63;5.57;;;;;;;;;;5035805;27;95877;-75
2022/04/10 21:48:56;;;;;;;28.90;6.60;;;;;;;;;;5050121;27;97553;-76
2022/04/10 21:51:23;;;;;;;9.35;5.25;;;;;;;;;;5048840;27;95365;-74
2022/04/10 21:53:49;;;;;;;8.90;5.10;;;;;;;;;;5050116;27;96596;-74
2022/04/10 21:56:15;;;;;;;12.80;4.93;;;;;;;;;;5049506;27;97301;-75
2022/04/10 21:58:43;;;;;;;15.70;5.32;;;;;;;;;;5047799;27;95184;-74
2022/04/10 22:01:09;;;;;;;8.38;4.72;;;;;;;;;;5050198;27;96668;-74
2022/04/10 22:03:36;;;;;;;12.73;5.18;;;;;;;;;;5046013;27;97806;-76
2022/04/10 22:06:02;;;;;;;24.75;5.18;;;;;;;;;;5029759;28;95405;-76
2022/04/10 22:08:29;;;;;;;9.23;5.10;;;;;;;;;;5033082;28;96763;-76
2022/04/10 22:10:55;;;;;;;10.75;5.00;;;;;;;;;;5029340;27;95330;-74
2022/04/10 22:13:22;;;;;;;13.40;4.90;;;;;;;;;;5029800;28;97068;-74
2022/04/10 22:15:50;;;;;;;8.93;5.10;;;;;;;;;;5029864;27;97223;-76
2022/04/10 22:18:16;;;;;;;9.98;4.85;;;;;;;;;;5030594;27;95974;-75
2022/04/10 22:20:42;;;;;;;8.13;5.10;;;;;;;;;;5036212;27;96868;-75
2022/04/10 22:23:09;;;;;;;9.07;5.55;;;;;;;;;;5047642;27;97557;-77
2022/04/10 22:25:36;;;;;;;13.23;5.35;;;;;;;;;;5044865;27;95637;-75
2022/04/10 22:28:23;;;;;;;14.18;6.45;;;;;;;;;;5029511;27;96695;-76
2022/04/10 22:30:50;;;;;;;42.47;7.35;;;;;;;;;;5033022;28;97384;-78
2022/04/10 22:33:16;;;;;;;11.55;5.97;;;;;;;;;;5035359;27;96703;-78
2022/04/10 22:35:43;;;;;;;43.85;7.13;;;;;;;;;;5049681;27;97324;-78
2022/04/10 22:38:10;;;;;;;13.88;5.97;;;;;;;;;;5049433;27;95256;-76
2022/04/10 22:40:36;;;;;;;12.98;5.28;;;;;;;;;;5049990;27;97214;-78
2022/04/10 22:43:07;;;;;;;12.52;6.03;;;;;;;;;;5049584;27;96827;-78
2022/04/10 22:45:33;;;;;;;10.18;4.97;;;;;;;;;;5048970;27;96212;-78
2022/04/10 22:47:59;;;;;;;7.43;4.80;;;;;;;;;;5036336;27;96376;-77
2022/04/10 22:50:26;;;;;;;13.88;5.50;;;;;;;;;;5029430;27;97313;-77
2022/04/10 22:52:53;;;;;;;11.98;5.68;;;;;;;;;;5042043;27;95691;-77
2022/04/10 22:55:19;;;;;;;11.93;5.57;;;;;;;;;;5049162;27;97445;-78
2022/04/10 22:57:46;;;;;;;8.43;5.65;;;;;;;;;;5049695;27;95429;-78
2022/04/10 23:00:13;;;;;;;9.35;5.40;;;;;;;;;;5048642;27;95862;-77
2022/04/10 23:02:40;;;;;;;15.27;6.18;;;;;;;;;;5041193;27;97385;-79
2022/04/10 23:05:06;;;;;;;28.55;6.25;;;;;;;;;;5028732;27;95786;-78
2022/04/10 23:07:33;;;;;;;12.05;6.00;;;;;;;;;;5028928;28;96774;-77
2022/04/10 23:09:59;;;;;;;11.20;6.03;;;;;;;;;;5036476;27;97504;-76
2022/04/10 23:12:26;;;;;;;16.95;6.95;;;;;;;;;;5051721;27;95369;-77
2022/04/10 23:14:54;;;;;;;12.70;6.28;;;;;;;;;;5047158;27;97289;-77
2022/04/10 23:17:21;;;;;;;9.70;5.65;;;;;;;;;;5047164;27;95559;-76
2022/04/10 23:19:48;;;;;;;18.73;6.45;;;;;;;;;;5049311;27;96771;-75
2022/04/10 23:22:14;;;;;;;9.63;5.78;;;;;;;;;;5047815;27;96763;-74
2022/04/10 23:24:41;;;;;;;13.02;6.32;;;;;;;;;;5048870;27;95322;-75
2022/04/10 23:27:07;;;;;;;10.27;5.75;;;;;;;;;;5049028;27;96555;-76
2022/04/10 23:29:34;;;;;;;10.85;5.90;;;;;;;;;;5048265;27;98055;-76
2022/04/10 23:32:00;;;;;;;11.48;5.78;;;;;;;;;;5037805;27;95414;-76
2022/04/10 23:34:44;;;;;;;48.47;7.22;;;;;;;;;;5028539;28;95702;-74
2022/04/10 23:37:11;;;;;;;20.50;7.50;;;;;;;;;;5029289;27;95405;-77
2022/04/10 23:39:37;;;;;;;11.27;6.18;;;;;;;;;;5030043;27;96708;-77
2022/04/10 23:42:04;;;;;;;17.92;7.45;;;;;;;;;;5031760;27;98387;-78
2022/04/10 23:44:31;;;;;;;13.90;7.13;;;;;;;;;;5049414;27;95602;-77
2022/04/10 23:46:58;;;;;;;14.48;6.57;;;;;;;;;;5036039;27;97168;-78
2022/04/10 23:49:24;;;;;;;33.22;6.90;;;;;;;;;;5031166;27;97587;-77
2022/04/10 23:51:50;;;;;;;21.58;7.45;;;;;;;;;;5041908;27;95813;-77
2022/04/10 23:54:18;;;;;;;13.95;6.50;;;;;;;;;;5051550;27;96777;-77
2022/04/10 23:56:44;;;;;;;12.73;6.18;;;;;;;;;;5054710;27;97441;-77
2022/04/10 23:59:11;;;;;;;16.45;6.47;;;;;;;;;;5051369;27;96763;-78
